Time;durP1;ratioP1;P1;durP2;ratioP2;P2;SDS_P1;SDS_P2;PMS_P1;PMS_P2;Temp;Humidity;BMP_temperature;BMP_pressure;BME280_temperature;BME280_humidity;BME280_pressure;Samples;Min_cycle;Max_cycle;Signal;HPM_P1;HPM_P2
2024/01/18 00:04:27;;;;;;;0.30;0.30;;;;;;;-0.59;77.83;98475.84;15595434;28;20506;-48
2024/01/18 00:12:02;;;;;;;0.35;0.35;;;;;;;-0.61;78.24;98476.03;15592386;28;20080;-51
2024/01/18 00:19:38;;;;;;;0.40;0.40;;;;;;;-0.73;78.72;98477.59;15607496;28;20069;-50
2024/01/18 00:27:12;;;;;;;0.65;0.65;;;;;;;-0.44;78.85;98512.63;15607831;28;20375;-52
2024/01/18 00:34:46;;;;;;;0.10;0.10;;;;;;;-0.79;79.08;98529.22;15612191;28;20041;-50
2024/01/18 00:42:21;;;;;;;0.30;0.30;;;;;;;-0.71;79.24;98554.59;15606893;28;20128;-51
2024/01/18 00:49:55;;;;;;;0.00;0.00;;;;;;;-0.81;78.17;98567.28;15593166;28;20060;-52
2024/01/18 00:57:29;;;;;;;0.10;0.10;;;;;;;-0.52;78.75;98579.44;15590520;28;20095;-52
2024/01/18 01:05:03;;;;;;;0.10;0.10;;;;;;;-0.72;78.32;98576.66;15587454;28;20128;-52
2024/01/18 01:12:38;;;;;;;1.30;0.95;;;;;;;-0.60;78.37;98595.41;15601383;28;20418;-52
2024/01/18 01:20:12;;;;;;;0.63;0.63;;;;;;;-0.20;77.31;98603.59;15593618;28;20116;-52
2024/01/18 01:27:48;;;;;;;0.05;0.05;;;;;;;-0.47;77.05;98607.84;15586038;28;20049;-50
2024/01/18 01:35:23;;;;;;;2.13;1.00;;;;;;;-0.13;75.67;98612.38;15606829;28;20037;-49
2024/01/18 01:42:59;;;;;;;0.40;0.40;;;;;;;-0.38;75.61;98649.69;15583062;28;20120;-49
2024/01/18 01:50:36;;;;;;;0.08;0.08;;;;;;;-0.80;76.91;98645.28;15604207;28;20132;-48
2024/01/18 01:58:11;;;;;;;0.10;0.10;;;;;;;-0.56;75.12;98652.81;15595691;28;20095;-55
2024/01/18 02:05:45;;;;;;;0.10;0.10;;;;;;;-0.60;75.50;98648.13;15610104;28;20418;-49
2024/01/18 02:13:21;;;;;;;0.52;0.52;;;;;;;-0.58;74.64;98651.34;15586820;28;20083;-49
2024/01/18 02:20:57;;;;;;;0.70;0.70;;;;;;;-0.44;73.75;98670.72;15607661;28;20040;-49
2024/01/18 02:28:31;;;;;;;0.00;0.00;;;;;;;-0.66;74.92;98681.28;15602084;28;20053;-51
2024/01/18 02:36:05;;;;;;;0.30;0.30;;;;;;;-0.50;73.54;98682.03;15583824;28;20509;-51
2024/01/18 02:43:41;;;;;;;1.08;0.47;;;;;;;-0.50;72.65;98690.75;15607792;28;20486;-50
2024/01/18 02:51:15;;;;;;;0.10;0.10;;;;;;;-0.39;73.50;98682.31;15586790;28;20037;-51
2024/01/18 02:58:49;;;;;;;0.10;0.10;;;;;;;-0.73;73.49;98687.50;15574752;28;20388;-52
2024/01/18 03:06:23;;;;;;;0.13;0.13;;;;;;;-0.81;74.24;98694.50;15596624;28;20050;-52
2024/01/18 03:13:58;;;;;;;1.45;0.43;;;;;;;-0.75;74.35;98702.66;15605631;28;20044;-54
2024/01/18 03:21:33;;;;;;;0.93;0.90;;;;;;;-0.83;74.57;98709.69;15607606;28;20060;-53
2024/01/18 03:29:10;;;;;;;0.10;0.10;;;;;;;-0.87;73.84;98712.88;15599581;28;20045;-52
2024/01/18 03:36:44;;;;;;;0.22;0.22;;;;;;;-0.87;73.77;98724.25;15605756;28;20045;-52
2024/01/18 03:44:20;;;;;;;0.10;0.10;;;;;;;-0.80;73.44;98750.63;15600563;28;20041;-53
2024/01/18 03:51:58;;;;;;;0.20;0.20;;;;;;;-0.94;73.86;98754.13;15613984;28;20033;-53
2024/01/18 03:59:33;;;;;;;1.50;1.40;;;;;;;-0.83;74.39;98764.19;15614030;28;20046;-52
2024/01/18 04:07:08;;;;;;;0.50;0.50;;;;;;;-0.84;72.76;98766.00;15611506;28;20068;-54
2024/01/18 04:14:44;;;;;;;0.10;0.10;;;;;;;-1.00;73.50;98771.47;15610055;28;20315;-52
2024/01/18 04:22:18;;;;;;;0.00;0.00;;;;;;;-0.85;73.30;98795.97;15613738;28;20033;-51
2024/01/18 04:29:54;;;;;;;0.10;0.10;;;;;;;-0.59;72.34;98792.81;15614204;28;20053;-48
2024/01/18 04:37:28;;;;;;;0.45;0.43;;;;;;;-1.04;74.35;98807.06;15612165;28;20053;-49
2024/01/18 04:45:07;;;;;;;0.40;0.32;;;;;;;-1.00;72.90;98812.78;15603913;28;20564;-54
2024/01/18 04:52:43;;;;;;;0.55;0.55;;;;;;;-0.65;73.20;98806.75;15608815;28;20104;-50
2024/01/18 05:00:18;;;;;;;0.00;0.00;;;;;;;-1.16;73.73;98801.47;15608142;28;20117;-50
2024/01/18 05:07:52;;;;;;;0.45;0.45;;;;;;;-0.57;72.84;98811.06;15604015;28;20053;-49
2024/01/18 05:15:28;;;;;;;0.20;0.20;;;;;;;-0.54;73.05;98813.34;15603707;28;20049;-51
2024/01/18 05:23:02;;;;;;;0.13;0.13;;;;;;;-0.64;72.67;98815.47;15610307;28;20034;-51
2024/01/18 05:30:38;;;;;;;0.10;0.10;;;;;;;-0.36;71.35;98834.03;15607273;28;20107;-49
2024/01/18 05:38:14;;;;;;;0.00;0.00;;;;;;;-1.39;76.18;98866.53;15611723;28;20061;-48
2024/01/18 05:45:49;;;;;;;0.10;0.10;;;;;;;-1.01;74.06;98866.47;15608548;28;20049;-48
2024/01/18 05:53:22;;;;;;;0.30;0.30;;;;;;;-1.18;73.57;98892.94;15610024;28;20132;-51
2024/01/18 06:01:00;;;;;;;0.15;0.15;;;;;;;-0.85;74.25;98901.31;15583113;28;20445;-48
2024/01/18 06:08:34;;;;;;;0.35;0.35;;;;;;;-0.73;73.50;98903.50;15586587;28;20084;-49
2024/01/18 06:16:10;;;;;;;0.00;0.00;;;;;;;-0.87;73.75;98924.41;15611625;28;20099;-48
2024/01/18 06:23:43;;;;;;;0.20;0.20;;;;;;;-1.08;74.48;98940.88;15610448;28;20038;-50
2024/01/18 06:31:19;;;;;;;0.70;0.70;;;;;;;-0.74;73.62;98936.13;15611434;28;20045;-51
2024/01/18 06:38:54;;;;;;;0.10;0.10;;;;;;;-1.07;75.08;98949.63;15622735;28;20049;-49
2024/01/18 06:46:31;;;;;;;0.98;0.90;;;;;;;-1.26;75.06;98958.00;15622398;28;20096;-49
2024/01/18 06:54:06;;;;;;;0.20;0.20;;;;;;;-1.25;75.30;98964.94;15622691;28;20095;-49
2024/01/18 07:01:41;;;;;;;4.28;2.53;;;;;;;-0.72;73.57;98966.53;15622059;28;20405;-49
2024/01/18 07:09:16;;;;;;;0.03;0.03;;;;;;;-1.20;74.01;98966.03;15587345;28;20073;-48
2024/01/18 07:16:52;;;;;;;0.05;0.05;;;;;;;-1.02;73.64;98981.50;15614085;28;20038;-49
2024/01/18 07:24:27;;;;;;;0.30;0.30;;;;;;;-1.12;74.61;98976.50;15617052;28;20446;-52
2024/01/18 07:32:02;;;;;;;0.10;0.10;;;;;;;-1.08;75.05;98988.28;15618825;28;20449;-50
2024/01/18 07:39:36;;;;;;;0.05;0.05;;;;;;;-1.08;74.39;98988.28;15621215;28;20049;-53
2024/01/18 07:47:11;;;;;;;0.28;0.28;;;;;;;-1.57;75.30;98986.06;15619622;28;20041;-49
2024/01/18 07:54:45;;;;;;;2.40;1.67;;;;;;;-0.63;73.62;98983.91;15603937;28;20103;-51
2024/01/18 08:02:20;;;;;;;0.22;0.22;;;;;;;-0.56;72.08;98991.88;15619307;28;20036;-52
2024/01/18 08:09:55;;;;;;;0.13;0.13;;;;;;;-0.83;72.70;98991.53;15616995;28;20053;-53
2024/01/18 08:17:29;;;;;;;0.25;0.25;;;;;;;-0.65;72.48;99004.34;15615843;28;20052;-48
2024/01/18 08:25:03;;;;;;;1.45;0.65;;;;;;;-1.01;75.10;99024.44;15598331;28;20500;-52
2024/01/18 08:32:38;;;;;;;0.98;0.95;;;;;;;-1.01;73.51;98984.97;15615045;28;20045;-49
2024/01/18 08:40:13;;;;;;;0.20;0.20;;;;;;;-0.18;72.11;99033.97;15614690;28;20045;-52
2024/01/18 08:47:48;;;;;;;0.05;0.05;;;;;;;-0.42;72.94;99049.06;15596863;28;20045;-50
2024/01/18 08:55:23;;;;;;;1.85;1.70;;;;;;;0.28;71.02;99042.47;15595967;28;20461;-48
2024/01/18 09:03:00;;;;;;;0.32;0.32;;;;;;;-0.06;71.58;99057.03;15615535;28;20037;-52
2024/01/18 09:10:34;;;;;;;0.63;0.63;;;;;;;0.41;71.25;99057.59;15616709;28;20513;-52
2024/01/18 09:18:09;;;;;;;0.43;0.43;;;;;;;-0.11;72.37;99083.16;15616047;28;20119;-49
2024/01/18 09:25:43;;;;;;;0.80;0.80;;;;;;;0.16;71.23;99094.06;15615901;28;20049;-51
2024/01/18 09:33:19;;;;;;;0.00;0.00;;;;;;;0.58;70.24;99105.72;15615227;28;20033;-51
2024/01/18 09:40:54;;;;;;;0.10;0.10;;;;;;;0.82;69.51;99118.59;15614850;28;20052;-48
2024/01/18 09:48:30;;;;;;;1.50;1.40;;;;;;;0.39;71.28;99131.69;15614580;28;20441;-50
2024/01/18 09:56:11;;;;;;;0.10;0.10;;;;;;;0.24;70.52;99144.09;15597955;28;20049;-50
2024/01/18 10:03:46;;;;;;;0.68;0.65;;;;;;;-0.03;71.81;99148.19;15572005;28;20132;-52
2024/01/18 10:11:20;;;;;;;0.10;0.10;;;;;;;0.16;72.06;99157.38;15623037;28;20051;-49
2024/01/18 10:18:55;;;;;;;0.20;0.20;;;;;;;-0.11;72.94;99150.91;15590833;28;20506;-49
2024/01/18 10:26:33;;;;;;;0.15;0.15;;;;;;;0.27;72.15;99156.09;15648122;22;20380;-48
2024/01/18 10:34:08;;;;;;;0.13;0.13;;;;;;;0.44;70.53;99162.81;15739303;28;20047;-49
2024/01/18 10:41:41;;;;;;;0.00;0.00;;;;;;;0.37;70.79;99164.53;15747280;28;20049;-50
2024/01/18 10:49:17;;;;;;;0.50;0.50;;;;;;;0.30;70.53;99180.31;15696104;28;20574;-47
2024/01/18 10:56:50;;;;;;;2.17;1.52;;;;;;;0.77;69.67;99192.28;15683752;28;20110;-46
2024/01/18 11:04:27;;;;;;;1.17;1.13;;;;;;;0.47;71.79;99196.78;15698469;28;20063;-50
2024/01/18 11:12:03;;;;;;;0.38;0.38;;;;;;;0.70;70.77;99200.13;15745463;28;20037;-45
2024/01/18 11:19:42;;;;;;;0.08;0.08;;;;;;;0.97;69.36;99211.81;15727946;28;20048;-47
2024/01/18 11:27:18;;;;;;;0.22;0.22;;;;;;;1.28;69.85;99206.25;15721798;28;20033;-47
2024/01/18 11:35:06;;;;;;;0.25;0.25;;;;;;;1.08;68.70;99209.69;15726897;28;20041;-50
2024/01/18 11:42:43;;;;;;;0.10;0.10;;;;;;;1.70;67.75;99196.66;15744168;28;20127;-52
2024/01/18 11:50:18;;;;;;;3.90;3.20;;;;;;;1.22;69.20;99214.94;15722004;28;20041;-51
2024/01/18 11:57:53;;;;;;;0.35;0.35;;;;;;;0.71;69.61;99230.00;15724431;28;20044;-49
2024/01/18 12:05:28;;;;;;;1.02;0.65;;;;;;;1.05;69.45;99232.03;15742543;28;20131;-51
2024/01/18 12:13:02;;;;;;;0.47;0.47;;;;;;;0.59;70.59;99237.53;15742170;28;20051;-51
2024/01/18 12:20:37;;;;;;;0.20;0.20;;;;;;;1.46;67.53;99220.88;15723252;28;20048;-50
2024/01/18 12:28:13;;;;;;;1.65;0.82;;;;;;;1.21;67.41;99225.69;15741139;28;20068;-51
2024/01/18 12:35:49;;;;;;;0.47;0.47;;;;;;;0.67;69.08;99234.00;15740784;28;20045;-51
2024/01/18 12:43:23;;;;;;;0.15;0.15;;;;;;;1.01;67.99;99251.88;15740716;28;20040;-50
2024/01/18 12:50:59;;;;;;;0.00;0.00;;;;;;;1.23;67.18;99266.78;15713110;28;20281;-51
2024/01/18 12:58:41;;;;;;;0.03;0.03;;;;;;;1.97;64.23;99263.03;15827107;27;20098;-53
2024/01/18 13:06:15;;;;;;;0.10;0.10;;;;;;;1.92;64.41;99268.91;15788572;28;20044;-50
2024/01/18 13:13:54;;;;;;;0.15;0.15;;;;;;;1.86;63.81;99279.41;15788159;28;20044;-52
2024/01/18 13:21:27;;;;;;;1.23;1.13;;;;;;;1.83;65.14;99288.56;15788382;28;20408;-51
2024/01/18 13:29:03;;;;;;;0.20;0.20;;;;;;;3.64;60.15;99289.38;15788383;28;20592;-51
2024/01/18 13:36:37;;;;;;;1.08;1.02;;;;;;;2.45;62.39;99311.66;15789868;28;20382;-50
2024/01/18 13:44:12;;;;;;;;;;;;;;;3.07;60.89;99316.09;15782260;28;20070;-49
2024/01/18 13:51:47;;;;;;;2.28;0.90;;;;;;;2.75;61.04;99345.88;15787386;28;20006;-50
2024/01/18 13:59:22;;;;;;;0.10;0.10;;;;;;;2.36;62.80;99357.84;15790549;28;20456;-52
2024/01/18 14:06:55;;;;;;;0.38;0.13;;;;;;;1.39;64.90;99376.75;15760569;28;20044;-52
2024/01/18 14:14:30;;;;;;;;;;;;;;;2.36;62.02;99383.50;15742877;28;20143;-52
2024/01/18 14:22:03;;;;;;;0.10;0.10;;;;;;;2.20;63.11;99405.75;15745295;28;19924;-49
2024/01/18 14:29:38;;;;;;;0.85;0.85;;;;;;;1.14;66.43;99412.41;15744564;28;20089;-51
2024/01/18 14:37:12;;;;;;;0.80;0.80;;;;;;;0.22;69.10;99447.69;15735409;28;20115;-48
2024/01/18 14:44:48;;;;;;;2.65;1.65;;;;;;;0.99;67.38;99452.88;15745078;28;20192;-50
2024/01/18 14:52:24;;;;;;;0.10;0.10;;;;;;;0.33;69.16;99470.25;15744458;28;20033;-50
2024/01/18 15:00:01;;;;;;;0.52;0.43;;;;;;;0.44;69.56;99472.47;15742328;28;20044;-50
2024/01/18 15:07:35;;;;;;;1.27;0.68;;;;;;;0.52;68.41;99495.34;15742728;28;20054;-51
2024/01/18 15:15:13;;;;;;;0.20;0.20;;;;;;;0.21;69.58;99506.75;15737290;28;20150;-51
2024/01/18 15:22:47;;;;;;;1.08;1.08;;;;;;;-0.17;71.01;99515.53;15739479;28;20040;-51
2024/01/18 15:30:22;;;;;;;2.20;2.10;;;;;;;0.01;70.75;99531.13;15739571;28;20037;-51
2024/01/18 15:37:56;;;;;;;0.00;0.00;;;;;;;-0.21;70.72;99545.88;15738970;28;20051;-52
2024/01/18 15:45:34;;;;;;;0.10;0.10;;;;;;;-0.22;70.62;99562.69;15733103;28;20042;-51
2024/01/18 15:53:08;;;;;;;0.38;0.38;;;;;;;-0.27;70.28;99576.38;15738366;28;20048;-51
2024/01/18 16:00:43;;;;;;;1.13;1.05;;;;;;;-0.64;71.55;99600.66;15737829;28;20042;-50
2024/01/18 16:08:17;;;;;;;0.30;0.30;;;;;;;-0.68;71.76;99597.53;15728512;28;20041;-51
2024/01/18 16:15:55;;;;;;;2.13;1.92;;;;;;;-0.56;71.71;99617.28;15733923;28;20064;-51
2024/01/18 16:23:29;;;;;;;0.00;0.00;;;;;;;-0.83;71.07;99631.63;15724785;28;20048;-53
2024/01/18 16:31:04;;;;;;;5.88;1.20;;;;;;;-1.16;72.73;99646.56;15730128;28;20048;-51
2024/01/18 16:38:38;;;;;;;0.25;0.25;;;;;;;-1.22;72.12;99662.97;15732357;28;20111;-50
2024/01/18 16:46:14;;;;;;;2.45;2.22;;;;;;;-1.48;72.52;99670.16;15734199;28;20064;-51
2024/01/18 16:53:47;;;;;;;0.50;0.50;;;;;;;-1.48;72.24;99672.78;15734020;28;20465;-51
2024/01/18 17:01:26;;;;;;;0.15;0.15;;;;;;;-1.39;71.37;99703.41;15735040;28;20078;-49
2024/01/18 17:09:01;;;;;;;3.97;3.00;;;;;;;-1.73;72.21;99722.63;15730893;28;20047;-50
2024/01/18 17:16:39;;;;;;;2.70;1.27;;;;;;;-2.00;72.74;99734.16;15733834;28;20041;-51
2024/01/18 17:24:13;;;;;;;0.10;0.10;;;;;;;-2.01;72.20;99757.97;15735476;28;20072;-49
2024/01/18 17:31:48;;;;;;;0.10;0.10;;;;;;;-2.35;73.83;99756.88;15728278;28;20056;-49
2024/01/18 17:39:22;;;;;;;0.20;0.20;;;;;;;-2.38;75.01;99777.38;15732502;28;20040;-48
2024/01/18 17:46:58;;;;;;;0.05;0.05;;;;;;;-2.31;74.85;99786.31;15743854;28;20036;-50
2024/01/18 17:54:31;;;;;;;0.43;0.43;;;;;;;-2.57;75.08;99799.38;15743533;28;20708;-49
2024/01/18 18:02:06;;;;;;;0.45;0.45;;;;;;;-2.44;74.98;99815.59;15744337;28;20036;-50
2024/01/18 18:09:41;;;;;;;0.10;0.10;;;;;;;-2.38;74.13;99845.69;15743736;28;20256;-50
2024/01/18 18:17:16;;;;;;;0.57;0.57;;;;;;;-2.40;74.27;99856.38;15743146;28;20217;-50
2024/01/18 18:24:51;;;;;;;0.20;0.20;;;;;;;-3.03;75.61;99868.59;15742778;28;20048;-50
2024/01/18 18:32:26;;;;;;;0.32;0.32;;;;;;;-2.68;73.90;99888.91;15742123;28;20047;-49
2024/01/18 18:40:00;;;;;;;0.10;0.10;;;;;;;-2.68;73.55;99902.03;15741251;28;20462;-48
2024/01/18 18:47:35;;;;;;;0.10;0.10;;;;;;;-2.79;73.45;99923.25;15741038;28;20108;-49
2024/01/18 18:55:08;;;;;;;0.22;0.22;;;;;;;-2.82;73.09;99947.97;15740325;28;20040;-51
2024/01/18 19:02:43;;;;;;;0.32;0.32;;;;;;;-3.08;71.36;99959.13;15739331;28;20049;-50
2024/01/18 19:10:17;;;;;;;0.10;0.10;;;;;;;-3.10;70.61;99987.28;15732296;28;20493;-49
2024/01/18 19:17:53;;;;;;;0.10;0.10;;;;;;;-3.56;71.20;100010.81;15739146;28;20101;-50
2024/01/18 19:25:26;;;;;;;0.10;0.10;;;;;;;-3.74;70.67;100031.63;15738428;28;20448;-52
2024/01/18 19:33:01;;;;;;;0.00;0.00;;;;;;;-3.70;69.93;100054.81;15737330;28;20083;-49
2024/01/18 19:40:35;;;;;;;2.97;0.93;;;;;;;-3.76;69.83;100051.91;15719071;28;20052;-50
2024/01/18 19:48:10;;;;;;;0.00;0.00;;;;;;;-3.99;72.83;100067.84;15736231;28;20115;-53
2024/01/18 19:55:43;;;;;;;0.00;0.00;;;;;;;-3.62;72.34;100080.38;15736151;28;20048;-51
2024/01/18 20:03:18;;;;;;;0.10;0.10;;;;;;;-3.57;71.04;100086.03;15734584;28;20123;-50
2024/01/18 20:10:52;;;;;;;0.10;0.10;;;;;;;-3.87;70.36;100063.31;15735131;28;20059;-48
2024/01/18 20:18:27;;;;;;;0.10;0.10;;;;;;;-3.60;70.65;100102.03;15734613;28;20106;-49
2024/01/18 20:26:03;;;;;;;2.13;0.98;;;;;;;-3.67;71.45;100122.75;15734932;28;20497;-48
2024/01/18 20:33:39;;;;;;;0.63;0.45;;;;;;;-3.75;69.80;100125.19;15734349;28;20526;-51
2024/01/18 20:41:13;;;;;;;0.00;0.00;;;;;;;-4.05;69.58;100146.19;15734586;28;20421;-50
2024/01/18 20:48:47;;;;;;;0.22;0.22;;;;;;;-4.09;69.60;100169.22;15734250;28;20045;-50
2024/01/18 20:56:21;;;;;;;1.08;1.00;;;;;;;-4.22;68.87;100181.69;15733968;28;20489;-49
2024/01/18 21:03:55;;;;;;;0.00;0.00;;;;;;;-4.28;69.46;100204.00;15728995;28;20094;-52
2024/01/18 21:11:29;;;;;;;0.10;0.10;;;;;;;-4.62;68.86;100200.69;15723456;28;20048;-48
2024/01/18 21:19:03;;;;;;;0.00;0.00;;;;;;;-4.51;70.23;100239.94;15739191;28;20024;-50
2024/01/18 21:26:37;;;;;;;0.00;0.00;;;;;;;-4.84;68.84;100264.47;15743049;28;20447;-48
2024/01/18 21:34:12;;;;;;;0.70;0.65;;;;;;;-4.77;71.17;100270.03;15743086;28;20355;-48
2024/01/18 21:41:46;;;;;;;0.30;0.30;;;;;;;-4.46;73.00;100274.44;15738415;28;20059;-49
2024/01/18 21:49:20;;;;;;;0.08;0.08;;;;;;;-4.31;72.62;100287.25;15735474;28;20418;-48
2024/01/18 21:56:54;;;;;;;0.85;0.85;;;;;;;-4.24;71.28;100289.25;15739006;28;20039;-47
2024/01/18 22:04:29;;;;;;;0.32;0.32;;;;;;;-4.43;70.98;100310.03;15740050;28;20116;-48
2024/01/18 22:12:03;;;;;;;0.10;0.10;;;;;;;-4.58;70.45;100306.88;15739150;28;20316;-49
2024/01/18 22:19:38;;;;;;;0.10;0.10;;;;;;;-4.80;69.40;100325.25;15739276;28;20479;-47
2024/01/18 22:27:11;;;;;;;0.00;0.00;;;;;;;-5.13;69.79;100342.63;15739466;28;20071;-46
2024/01/18 22:34:46;;;;;;;0.10;0.10;;;;;;;-5.08;69.68;100355.38;15739429;28;20461;-50
2024/01/18 22:42:19;;;;;;;0.10;0.10;;;;;;;-5.23;70.32;100347.75;15736531;28;20132;-48
2024/01/18 22:49:55;;;;;;;0.10;0.10;;;;;;;-5.13;70.64;100384.50;15736619;28;20071;-47
2024/01/18 22:57:28;;;;;;;0.40;0.40;;;;;;;-5.29;70.75;100381.41;15737066;28;20040;-48
2024/01/18 23:05:03;;;;;;;2.28;1.60;;;;;;;-5.41;72.33;100389.25;15735648;28;20444;-48
2024/01/18 23:12:36;;;;;;;0.10;0.10;;;;;;;-5.42;72.88;100395.41;15768179;28;20059;-45
2024/01/18 23:20:13;;;;;;;0.10;0.10;;;;;;;-5.59;74.06;100405.50;15735450;28;20416;-46
2024/01/18 23:27:46;;;;;;;0.20;0.20;;;;;;;-5.28;73.07;100425.75;15732950;28;20128;-48
2024/01/18 23:35:21;;;;;;;0.10;0.10;;;;;;;-5.31;74.99;100433.84;15733869;28;20131;-47
2024/01/18 23:42:55;;;;;;;0.20;0.20;;;;;;;-5.59;76.87;100435.09;15733625;28;20138;-47
2024/01/18 23:50:30;;;;;;;0.00;0.00;;;;;;;-5.08;76.22;100452.19;15732501;28;20055;-49
2024/01/18 23:58:04;;;;;;;0.08;0.08;;;;;;;-5.24;74.22;100463.81;15733793;28;20217;-49
